Louviers, Colorado
Current Conditions -  °F | °C
As of 4:53 PM on Saturday 22 Nov 2014 (Local Time) from KAPA Reporting Station
Broken Clouds Broken Clouds  
Wind Chill: 52°   Ceiling: 14000
Heat Index: 52°   Visibility: 10mi
Dew Point: 19°   Wind: 7mph
Humidity: 27%   Direction: 30°NNE
Pressure: 29.61"   Gusts: NA
Location:  39.48°N, 105.01°W
Report Text: KAPA 222353Z 03006KT 10SM FEW100 BKN140 BKN200 11/M07 A2961 RMK AO2 SLP004 T01111072 10172 20111 53004
Loading
Personal Weather Stations






























Interactive Weather Map New forecast layout! Learn more

10-Day Weather Forecast

Advertisements
Track Severe Weather on mobile